createdAt,value
2023-02-11T00:00:23.291Z,25.40
2023-02-11T00:03:11.223Z,26.38
2023-02-11T00:06:04.598Z,28.25
2023-02-11T00:08:52.457Z,25.48
2023-02-11T00:11:40.564Z,25.10
2023-02-11T00:14:28.300Z,25.77
2023-02-11T00:17:16.268Z,25.80
2023-02-11T00:20:06.027Z,25.77
2023-02-11T00:22:58.239Z,25.88
2023-02-11T00:25:46.837Z,25.27
2023-02-11T00:28:34.809Z,24.27
2023-02-11T00:31:24.632Z,24.25
2023-02-11T00:34:12.875Z,24.17
2023-02-11T00:37:00.945Z,23.48
2023-02-11T00:39:51.046Z,22.65
2023-02-11T00:42:39.056Z,23.88
2023-02-11T00:45:26.742Z,24.20
2023-02-11T00:48:14.329Z,23.33
2023-02-11T00:51:02.206Z,25.35
2023-02-11T00:53:49.985Z,21.67
2023-02-11T00:56:38.951Z,22.90
2023-02-11T00:59:26.896Z,21.67
2023-02-11T01:02:14.419Z,22.77
2023-02-11T01:05:02.563Z,22.52
2023-02-11T01:07:50.509Z,23.38
2023-02-11T01:10:38.131Z,20.83
2023-02-11T01:13:28.720Z,20.67
2023-02-11T01:16:17.782Z,20.38
2023-02-11T01:19:05.685Z,23.27
2023-02-11T01:21:53.968Z,24.23
2023-02-11T01:24:41.413Z,20.92
2023-02-11T01:27:28.901Z,20.83
2023-02-11T01:30:17.976Z,20.42
2023-02-11T01:33:05.966Z,20.85
2023-02-11T01:35:53.974Z,21.45
2023-02-11T01:38:44.648Z,19.33
2023-02-11T01:41:36.204Z,20.67
2023-02-11T01:44:29.865Z,22.70
2023-02-11T01:47:23.306Z,25.73
2023-02-11T01:50:14.716Z,25.95
2023-02-11T01:53:19.068Z,24.88
2023-02-11T01:56:26.464Z,23.38
2023-02-11T01:59:25.584Z,24.63
2023-02-11T02:02:21.093Z,23.58
2023-02-11T02:05:23.467Z,24.15
2023-02-11T02:08:20.298Z,24.50
2023-02-11T02:11:08.552Z,25.17
2023-02-11T02:13:56.315Z,24.83
2023-02-11T02:16:44.420Z,26.58
2023-02-11T02:20:12.722Z,26.73
2023-02-11T02:23:35.499Z,24.85
2023-02-11T02:27:21.417Z,27.13
2023-02-11T02:31:02.292Z,22.92
2023-02-11T02:33:59.791Z,23.23
2023-02-11T02:36:57.255Z,25.88
2023-02-11T02:39:49.849Z,27.63
2023-02-11T02:42:39.138Z,25.88
2023-02-11T02:45:27.074Z,23.92
2023-02-11T02:48:28.120Z,26.95
2023-02-11T02:51:52.887Z,27.27
2023-02-11T02:55:18.487Z,26.80
2023-02-11T02:58:46.005Z,27.63
2023-02-11T03:01:51.671Z,26.23
2023-02-11T03:04:51.831Z,24.88
2023-02-11T03:07:49.756Z,27.10
2023-02-11T03:10:43.779Z,25.33
2023-02-11T03:13:36.880Z,26.55
2023-02-11T03:19:21.683Z,25.33
2023-02-11T03:22:18.254Z,24.88
2023-02-11T03:25:08.858Z,25.60
2023-02-11T03:28:09.209Z,24.88
2023-02-11T03:31:10.832Z,24.90
2023-02-11T03:34:08.753Z,25.17
2023-02-11T03:37:04.339Z,25.70
2023-02-11T03:39:56.204Z,25.63
2023-02-11T03:42:50.548Z,24.85
2023-02-11T03:45:39.556Z,25.05
2023-02-11T03:48:31.135Z,25.40
2023-02-11T03:51:21.896Z,27.60
2023-02-11T03:54:16.530Z,24.83
2023-02-11T03:57:05.722Z,24.83
2023-02-11T03:59:58.935Z,24.30
2023-02-11T04:05:36.007Z,24.00
2023-02-11T04:08:25.055Z,24.77
2023-02-11T04:11:16.180Z,24.42
2023-02-11T04:14:06.298Z,24.17
2023-02-11T04:16:58.783Z,23.33
2023-02-11T04:19:49.602Z,22.38
2023-02-11T04:22:40.921Z,23.02
2023-02-11T04:25:32.059Z,21.83
2023-02-11T04:28:23.336Z,23.77
2023-02-11T04:31:14.941Z,21.27
2023-02-11T04:34:04.524Z,21.27
2023-02-11T04:36:55.322Z,21.60
2023-02-11T04:39:45.111Z,21.65
2023-02-11T04:42:32.759Z,21.67
2023-02-11T04:45:20.362Z,21.77
2023-02-11T04:48:09.438Z,21.63
2023-02-11T04:50:59.705Z,21.58
2023-02-11T04:53:48.247Z,22.70
2023-02-11T04:56:37.934Z,21.45
2023-02-11T04:59:27.326Z,22.00
2023-02-11T05:02:18.412Z,24.40
2023-02-11T05:05:11.182Z,23.40
2023-02-11T05:08:02.612Z,16.60
2023-02-11T05:10:52.540Z,21.88
2023-02-11T05:13:45.867Z,23.02
2023-02-11T05:16:39.187Z,20.65
2023-02-11T05:22:22.424Z,24.08
2023-02-11T05:25:15.234Z,23.98
2023-02-11T05:28:08.762Z,24.65
2023-02-11T05:30:59.467Z,24.67
2023-02-11T05:33:48.433Z,23.35
2023-02-11T05:36:37.583Z,21.10
2023-02-11T05:39:26.366Z,20.02
2023-02-11T05:42:16.596Z,21.38
2023-02-11T05:45:06.110Z,19.98
2023-02-11T05:47:54.993Z,19.40
2023-02-11T05:50:44.570Z,18.98
2023-02-11T05:53:33.842Z,19.48
2023-02-11T05:56:27.234Z,18.95
2023-02-11T05:59:22.144Z,20.25
2023-02-11T06:02:13.207Z,18.85
2023-02-11T06:05:02.367Z,19.05
2023-02-11T06:07:52.208Z,17.73
2023-02-11T06:10:43.096Z,18.15
2023-02-11T06:13:31.817Z,18.40
2023-02-11T06:16:22.341Z,18.60
2023-02-11T06:19:14.130Z,18.27
2023-02-11T06:22:03.287Z,18.27
2023-02-11T06:25:01.355Z,18.08
2023-02-11T06:27:53.074Z,18.58
2023-02-11T06:30:42.178Z,17.52
2023-02-11T06:33:34.647Z,17.30
2023-02-11T06:36:26.595Z,17.75
2023-02-11T06:39:18.389Z,17.30
2023-02-11T06:42:10.340Z,17.10
2023-02-11T06:45:06.072Z,17.02
2023-02-11T06:47:57.082Z,16.33
2023-02-11T06:50:49.550Z,16.30
2023-02-11T06:53:42.878Z,17.37
2023-02-11T06:56:37.216Z,15.18
2023-02-11T06:59:28.158Z,15.63
2023-02-11T07:02:20.985Z,15.60
2023-02-11T07:08:05.562Z,15.35
2023-02-11T07:10:56.613Z,15.63
2023-02-11T07:13:48.899Z,16.50
2023-02-11T07:16:39.710Z,15.27
2023-02-11T07:19:28.811Z,14.32
2023-02-11T07:22:17.254Z,14.80
2023-02-11T07:25:07.709Z,15.50
2023-02-11T07:27:56.421Z,16.02
2023-02-11T07:30:45.205Z,17.45
2023-02-11T07:33:34.252Z,16.30
2023-02-11T07:36:24.250Z,17.77
2023-02-11T07:39:17.323Z,16.08
2023-02-11T07:45:00.113Z,16.50
2023-02-11T07:47:50.702Z,17.40
2023-02-11T07:50:41.158Z,17.90
2023-02-11T07:53:29.220Z,18.08
2023-02-11T07:56:21.217Z,17.02
2023-02-11T07:59:17.069Z,18.27
2023-02-11T08:02:06.912Z,16.25
2023-02-11T08:04:55.038Z,18.42
2023-02-11T08:07:43.342Z,19.02
2023-02-11T08:10:34.191Z,18.50
2023-02-11T08:13:23.060Z,19.70
2023-02-11T08:16:25.648Z,19.27
2023-02-11T08:19:16.232Z,19.20
2023-02-11T08:22:09.626Z,19.40
2023-02-11T08:25:00.757Z,20.33
2023-02-11T08:27:49.677Z,20.02
2023-02-11T08:30:38.642Z,18.60
2023-02-11T08:33:35.046Z,17.92
2023-02-11T08:36:29.135Z,19.33
2023-02-11T08:39:24.208Z,19.40
2023-02-11T08:42:12.414Z,19.60
2023-02-11T08:45:00.297Z,19.83
2023-02-11T08:47:48.331Z,18.80
2023-02-11T08:50:40.397Z,17.67
2023-02-11T08:53:28.367Z,16.60
2023-02-11T08:56:19.983Z,17.90
2023-02-11T08:59:13.967Z,17.40
2023-02-11T09:02:03.092Z,17.30
2023-02-11T09:04:51.800Z,16.20
2023-02-11T09:07:40.818Z,16.35
2023-02-11T09:10:28.937Z,17.77
2023-02-11T09:13:17.077Z,15.88
2023-02-11T09:16:06.927Z,16.45
2023-02-11T09:18:57.422Z,14.25
2023-02-11T09:21:45.467Z,16.85
2023-02-11T09:24:34.701Z,15.20
2023-02-11T09:27:22.306Z,15.95
2023-02-11T09:30:11.841Z,16.20
2023-02-11T09:33:00.047Z,16.10
2023-02-11T09:35:47.736Z,15.05
2023-02-11T09:38:36.970Z,20.73
2023-02-11T09:41:43.431Z,49.58
2023-02-11T09:44:36.009Z,17.55
2023-02-11T09:47:29.136Z,17.08
2023-02-11T09:53:15.696Z,17.88
2023-02-11T09:56:11.491Z,15.88
2023-02-11T09:59:01.016Z,16.77
2023-02-11T10:01:54.501Z,17.38
2023-02-11T10:05:07.013Z,14.95
2023-02-11T10:08:02.253Z,17.13
2023-02-11T10:10:54.890Z,16.55
2023-02-11T10:13:52.956Z,16.70
2023-02-11T10:16:58.694Z,15.13
2023-02-11T10:20:01.265Z,14.57
2023-02-11T10:22:51.846Z,13.43
2023-02-11T10:25:45.464Z,15.70
2023-02-11T10:28:35.265Z,13.38
2023-02-11T10:31:26.792Z,13.65
2023-02-11T10:34:16.922Z,14.18
2023-02-11T10:37:07.310Z,14.15
2023-02-11T10:39:55.366Z,15.45
2023-02-11T10:42:47.186Z,14.13
2023-02-11T10:45:39.726Z,13.32
2023-02-11T10:48:46.519Z,13.52
2023-02-11T10:51:37.619Z,13.50
2023-02-11T10:54:25.767Z,15.05
2023-02-11T10:57:20.900Z,14.15
2023-02-11T11:00:22.483Z,12.48
2023-02-11T11:03:20.368Z,13.15
2023-02-11T11:06:10.592Z,13.68
2023-02-11T11:09:01.215Z,13.50
2023-02-11T11:11:55.541Z,14.05
2023-02-11T11:14:54.844Z,13.63
2023-02-11T11:17:43.009Z,12.85
2023-02-11T11:20:35.424Z,15.25
2023-02-11T11:23:25.021Z,14.45
2023-02-11T11:26:16.187Z,14.13
2023-02-11T11:29:10.692Z,14.27
2023-02-11T11:32:01.345Z,14.38
2023-02-11T11:34:52.584Z,14.20
2023-02-11T11:37:41.106Z,13.52
2023-02-11T11:40:31.545Z,16.17
2023-02-11T11:43:23.194Z,14.02
2023-02-11T11:46:12.271Z,14.20
2023-02-11T11:49:20.612Z,14.98
2023-02-11T11:52:20.868Z,14.73
2023-02-11T11:55:17.368Z,14.60
2023-02-11T11:58:06.914Z,14.98
2023-02-11T12:01:07.904Z,15.27
2023-02-11T12:04:26.163Z,13.70
2023-02-11T12:07:26.269Z,14.60
2023-02-11T12:10:46.183Z,15.18
2023-02-11T12:13:48.825Z,15.18
2023-02-11T12:16:48.906Z,15.35
2023-02-11T12:20:03.888Z,14.73
2023-02-11T12:23:06.271Z,14.38
2023-02-11T12:26:02.216Z,15.30
2023-02-11T12:29:04.330Z,15.15
2023-02-11T12:32:12.216Z,14.52
2023-02-11T12:35:16.608Z,15.32
2023-02-11T12:38:22.957Z,15.77
2023-02-11T12:41:55.369Z,15.15
2023-02-11T12:44:55.799Z,15.88
2023-02-11T12:48:00.435Z,15.48
2023-02-11T12:50:57.272Z,14.77
2023-02-11T12:54:10.312Z,14.75
2023-02-11T12:57:04.192Z,15.65
2023-02-11T12:59:59.004Z,15.07
2023-02-11T13:02:55.689Z,14.02
2023-02-11T13:05:49.476Z,14.43
2023-02-11T13:08:42.473Z,15.30
2023-02-11T13:11:38.528Z,15.13
2023-02-11T13:14:30.650Z,14.73
2023-02-11T13:17:26.584Z,15.57
2023-02-11T13:20:34.050Z,14.52
2023-02-11T13:23:31.487Z,14.80
2023-02-11T13:26:25.187Z,16.27
2023-02-11T13:29:27.543Z,15.85
2023-02-11T13:32:16.988Z,15.45
2023-02-11T13:35:33.570Z,14.00
2023-02-11T13:38:23.489Z,15.15
2023-02-11T13:41:21.035Z,14.20
2023-02-11T13:44:26.657Z,14.57
2023-02-11T13:47:30.583Z,14.43
2023-02-11T13:50:25.385Z,15.18
2023-02-11T13:53:16.150Z,14.75
2023-02-11T13:56:11.388Z,14.30
2023-02-11T13:59:02.300Z,14.80
2023-02-11T14:02:39.202Z,14.65
2023-02-11T14:05:50.563Z,13.68
2023-02-11T14:09:00.442Z,14.27
2023-02-11T14:11:51.717Z,13.98
2023-02-11T14:15:04.817Z,13.77
2023-02-11T14:17:53.967Z,14.10
2023-02-11T14:20:45.393Z,13.90
2023-02-11T14:23:33.224Z,14.00
2023-02-11T14:26:37.519Z,16.20
2023-02-11T14:29:34.575Z,14.10
2023-02-11T14:32:38.715Z,14.90
2023-02-11T14:35:37.189Z,13.75
2023-02-11T14:38:34.365Z,14.48
2023-02-11T14:41:25.874Z,14.57
2023-02-11T14:47:08.622Z,13.25
2023-02-11T14:49:57.555Z,13.88
2023-02-11T14:52:45.912Z,14.32
2023-02-11T14:55:38.096Z,15.20
2023-02-11T14:58:27.814Z,13.60
2023-02-11T15:01:30.155Z,13.45
2023-02-11T15:04:27.130Z,14.60
2023-02-11T15:07:16.510Z,15.43
2023-02-11T15:10:04.698Z,15.30
2023-02-11T15:12:53.551Z,14.82
2023-02-11T15:15:41.969Z,13.85
2023-02-11T15:18:37.599Z,13.63
2023-02-11T15:21:29.984Z,14.18
2023-02-11T15:24:27.083Z,15.25
2023-02-11T15:27:20.971Z,13.52
2023-02-11T15:30:28.138Z,14.10
2023-02-11T15:33:25.389Z,14.57
2023-02-11T15:36:16.603Z,15.27
2023-02-11T15:39:31.880Z,16.23
2023-02-11T15:42:25.666Z,14.90
2023-02-11T15:45:26.087Z,16.10
2023-02-11T15:48:17.636Z,16.50
2023-02-11T15:51:21.856Z,16.75
2023-02-11T15:54:18.587Z,14.77
2023-02-11T15:57:11.113Z,15.55
2023-02-11T16:00:04.409Z,15.63
2023-02-11T16:02:53.388Z,15.60
2023-02-11T16:05:41.316Z,15.93
2023-02-11T16:08:32.797Z,16.30
2023-02-11T16:11:31.161Z,15.48
2023-02-11T16:14:24.592Z,16.33
2023-02-11T16:17:22.917Z,16.30
2023-02-11T16:20:20.396Z,14.38
2023-02-11T16:23:09.065Z,17.95
2023-02-11T16:26:05.485Z,15.70
2023-02-11T16:28:54.254Z,14.80
2023-02-11T16:31:44.117Z,16.00
2023-02-11T16:34:32.410Z,15.85
2023-02-11T16:37:20.528Z,15.75
2023-02-11T16:40:11.974Z,15.73
2023-02-11T16:43:01.681Z,15.60
2023-02-11T16:45:50.573Z,16.05
2023-02-11T16:48:39.944Z,15.70
2023-02-11T16:51:28.029Z,14.85
2023-02-11T16:54:17.964Z,14.93
2023-02-11T16:57:15.006Z,15.57
2023-02-11T17:00:06.345Z,14.77
2023-02-11T17:02:54.051Z,14.85
2023-02-11T17:05:54.988Z,15.15
2023-02-11T17:08:46.509Z,16.52
2023-02-11T17:11:36.616Z,15.98
2023-02-11T17:14:26.441Z,16.63
2023-02-11T17:17:15.881Z,16.77
2023-02-11T17:20:04.062Z,16.35
2023-02-11T17:22:51.904Z,14.85
2023-02-11T17:25:40.743Z,15.63
2023-02-11T17:28:28.700Z,16.98
2023-02-11T17:31:17.128Z,16.50
2023-02-11T17:34:07.083Z,16.65
2023-02-11T17:36:58.229Z,16.08
2023-02-11T17:39:46.726Z,16.38
2023-02-11T17:42:35.186Z,16.75
2023-02-11T17:45:26.281Z,17.00
2023-02-11T17:48:14.548Z,16.60
2023-02-11T17:51:08.773Z,15.85
2023-02-11T17:53:58.364Z,16.52
2023-02-11T17:56:50.628Z,16.25
2023-02-11T17:59:39.552Z,15.77
2023-02-11T18:02:27.940Z,15.95
2023-02-11T18:05:16.197Z,16.63
2023-02-11T18:08:06.395Z,16.75
2023-02-11T18:10:54.450Z,16.38
2023-02-11T18:13:42.133Z,17.58
2023-02-11T18:16:30.796Z,16.65
2023-02-11T18:19:19.023Z,16.00
2023-02-11T18:22:07.070Z,16.20
2023-02-11T18:24:57.057Z,16.55
2023-02-11T18:27:46.330Z,16.10
2023-02-11T18:30:34.516Z,16.25
2023-02-11T18:33:22.838Z,17.08
2023-02-11T18:36:15.750Z,17.00
2023-02-11T18:39:06.883Z,16.35
2023-02-11T18:41:59.904Z,15.88
2023-02-11T18:47:36.125Z,15.50
2023-02-11T18:50:26.484Z,15.77
2023-02-11T18:53:17.150Z,16.08
2023-02-11T18:56:12.117Z,16.13
2023-02-11T18:59:02.470Z,17.17
2023-02-11T19:01:51.119Z,16.92
2023-02-11T19:04:39.247Z,16.48
2023-02-11T19:07:28.537Z,16.98
2023-02-11T19:10:18.542Z,17.55
2023-02-11T19:13:06.148Z,16.45
2023-02-11T19:15:57.838Z,18.25
2023-02-11T19:18:45.848Z,17.00
2023-02-11T19:21:36.506Z,18.90
2023-02-11T19:24:28.167Z,17.98
2023-02-11T19:27:15.890Z,17.88
2023-02-11T19:30:06.470Z,16.77
2023-02-11T19:32:57.200Z,18.05
2023-02-11T19:35:45.501Z,16.95
2023-02-11T19:38:35.604Z,16.88
2023-02-11T19:41:25.686Z,17.65
2023-02-11T19:44:17.202Z,16.60
2023-02-11T19:47:08.035Z,16.98
2023-02-11T19:50:01.157Z,16.30
2023-02-11T19:52:51.157Z,17.65
2023-02-11T19:55:41.260Z,16.85
2023-02-11T19:58:31.535Z,16.45
2023-02-11T20:01:23.171Z,15.98
2023-02-11T20:04:13.298Z,16.55
2023-02-11T20:07:06.786Z,16.80
2023-02-11T20:09:59.977Z,17.13
2023-02-11T20:12:49.834Z,17.35
2023-02-11T20:15:39.504Z,17.65
2023-02-11T20:18:29.153Z,16.92
2023-02-11T20:21:21.082Z,16.67
2023-02-11T20:24:12.665Z,16.88
2023-02-11T20:27:02.992Z,16.75
2023-02-11T20:29:52.914Z,15.50
2023-02-11T20:32:43.237Z,16.45
2023-02-11T20:35:32.882Z,16.42
2023-02-11T20:38:22.899Z,15.02
2023-02-11T20:41:17.430Z,15.02
2023-02-11T20:44:11.113Z,16.33
2023-02-11T20:47:05.311Z,15.27
2023-02-11T20:49:56.332Z,15.93
2023-02-11T20:52:45.892Z,15.45
2023-02-11T20:55:40.228Z,15.30
2023-02-11T20:58:31.251Z,16.05
2023-02-11T21:01:24.338Z,15.85
2023-02-11T21:04:16.001Z,15.73
2023-02-11T21:07:06.711Z,14.90
2023-02-11T21:09:57.845Z,15.13
2023-02-11T21:12:50.035Z,15.57
2023-02-11T21:15:40.646Z,14.70
2023-02-11T21:18:30.012Z,15.73
2023-02-11T21:21:20.504Z,15.10
2023-02-11T21:24:14.336Z,14.90
2023-02-11T21:27:04.116Z,15.80
2023-02-11T21:29:54.732Z,15.50
2023-02-11T21:32:48.757Z,15.80
2023-02-11T21:35:39.478Z,15.32
2023-02-11T21:38:28.819Z,14.77
2023-02-11T21:41:18.127Z,16.23
2023-02-11T21:44:07.000Z,16.70
2023-02-11T21:46:55.946Z,15.35
2023-02-11T21:49:46.753Z,16.40
2023-02-11T21:52:36.030Z,16.48
2023-02-11T21:55:25.080Z,16.58
2023-02-11T21:58:15.161Z,16.70
2023-02-11T22:01:10.770Z,16.30
2023-02-11T22:03:59.787Z,17.10
2023-02-11T22:06:50.034Z,16.73
2023-02-11T22:09:45.905Z,17.40
2023-02-11T22:12:34.973Z,16.52
2023-02-11T22:15:23.919Z,16.10
2023-02-11T22:18:15.180Z,17.45
2023-02-11T22:21:06.158Z,16.05
2023-02-11T22:23:57.286Z,16.48
2023-02-11T22:26:46.273Z,17.20
2023-02-11T22:29:35.678Z,17.60
2023-02-11T22:32:26.586Z,17.15
2023-02-11T22:35:15.612Z,17.58
2023-02-11T22:38:04.488Z,16.85
2023-02-11T22:40:54.511Z,17.30
2023-02-11T22:43:45.225Z,16.48
2023-02-11T22:46:34.411Z,17.10
2023-02-11T22:49:25.114Z,16.25
2023-02-11T22:52:13.946Z,17.73
2023-02-11T22:55:03.013Z,14.90
2023-02-11T22:57:55.228Z,15.93
2023-02-11T23:00:45.078Z,17.77
2023-02-11T23:03:34.097Z,16.30
2023-02-11T23:06:23.066Z,16.75
2023-02-11T23:09:13.462Z,16.33
2023-02-11T23:12:02.352Z,15.20
2023-02-11T23:14:55.504Z,15.35
2023-02-11T23:17:49.074Z,15.63
2023-02-11T23:20:41.701Z,15.35
2023-02-11T23:23:30.664Z,14.52
2023-02-11T23:26:30.412Z,15.75
2023-02-11T23:29:19.236Z,18.50
2023-02-11T23:32:09.576Z,17.48
2023-02-11T23:34:59.300Z,15.52
2023-02-11T23:37:50.982Z,13.90
2023-02-11T23:40:41.170Z,14.52
2023-02-11T23:43:29.977Z,15.57
2023-02-11T23:46:22.024Z,14.38
2023-02-11T23:49:14.734Z,14.00
2023-02-11T23:52:03.619Z,14.85
2023-02-11T23:54:54.560Z,15.27
2023-02-11T23:57:45.407Z,14.00
